Terminal Aerodrome Forecast
Issued by NWS Glasgow, MT

Current Version | Previous Version | Text Only | Print | Product List | Glossary On
Versions: 1 2 3 4 5 6 7 8 9 10 11 12 13 14 15 16
000
FTUS45 KGGW 200521
TAFGGW
TAF
KGGW 200521Z 2006/2106 11012KT P6SM SCT250
     FM201900 16007KT P6SM SCT200
     FM202200 24012KT P6SM SCT150
     FM210000 28018G26KT P6SM VCSH SCT070 BKN100
     FM210300 29021G33KT P6SM VCSH BKN070=

USA.gov is the U.S. government's official web portal to all federal, state and local government web resources and services.